Seatac, WA

01:02 PM PST on noiembrie 22, 2014 (GMT -0800)
Seattle-Tacoma International | Change Station
CLOSE
Current Station
Aeroport
Location: Seattle,
Elevation: 433 ft
Nearby Weather Stations

Elev 433 ft 47.44 °N, 122.31 °W | Updated 9 minutes ago

Cer acoperit
Cer acoperit
46 °F
Feels Like 41 °F
N
9
Vânt variabil Vânt from sud

astăzi
High -- | Low -- °F
--% Chance of Precip.
Ieri
High -- | Low -- °F
Precip. -- inch
7:24 AM 4:26 PM
Lună Nouă, 0% visible
Presiunea 29.88 inch
Vizibilitatea 10.0 mile
Nori Cer acoperit 1400 ft
Vânt rece 41 °F
Punctul de rouă 43 °F
Umiditatea 89%
Precipitaţii 0.02 inch
Adâncimea zăpezii Not available.
UV 1 out of 12
Pollen .10 out of 12
Calitatea aerului Not available.
Flu Activity Not available.
METAR KSEA 222053Z 19008KT 10SM OVC014 08/06 A2986 RMK AO2 SLP118 60001 T00780061 53032

More Conditions Fewer Conditions

Presiunea 29.88 inch
Vizibilitatea 10.0 mile
Nori Cer acoperit 1400 ft
Vânt rece 41 °F
Punctul de rouă 43 °F
Umiditatea 89%
Precipitaţii 0.02 inch
Adâncimea zăpezii Not available.
UV 1 out of 12
Pollen .10 out of 12
Calitatea aerului Not available.
Flu Activity Not available.
METAR KSEA 222053Z 19008KT 10SM OVC014 08/06 A2986 RMK AO2 SLP118 60001 T00780061 53032

More Conditions Fewer Conditions

10-Day Weather Forecast

Almanac

Astronomie

Nov. 22, 2014 Răsărit Apus
Timpul Actual
Crepusculul Civil
Crepusculul nautic
Răsărit Astronomic
Luna
Durata zilei lumină
Lungimea zilei
Tomorrow will be .
, % of the Moon is Illuminated

Extremele de azi

State Highs State Lows

Community

WunderPhotos

Upload Photos

1,772,904 photos uploaded!

WunderBlogs® & News

Nearby

Calitatea aerului

  Calitatea aerului Index de calitate a aerului Poluat
Not available.

Adâncimea zapezii

Station Depth Elevation

Earthquake Activity

Oraş Distance Mag. Time & Date
Minimum magnitude displayed is 2.5.

Coastal Water Temperatures

Locul Temperatura

Nearby Weather Stations